sensor_id;sensor_type;location;lat;lon;timestamp;temperature;humidity
21417;DHT22;10869;52.238;10.716;2022-08-25T03:04:04;19.70;99.90
21417;DHT22;10869;52.238;10.716;2022-08-25T03:06:31;19.70;99.90
21417;DHT22;10869;52.238;10.716;2022-08-25T03:09:00;19.70;99.90
21417;DHT22;10869;52.238;10.716;2022-08-25T03:11:26;19.70;99.90
21417;DHT22;10869;52.238;10.716;2022-08-25T03:13:57;19.80;99.90
21417;DHT22;10869;52.238;10.716;2022-08-25T03:16:23;19.70;99.90
21417;DHT22;10869;52.238;10.716;2022-08-25T03:18:49;19.80;99.90
21417;DHT22;10869;52.238;10.716;2022-08-25T03:21:16;19.80;99.90
21417;DHT22;10869;52.238;10.716;2022-08-25T05:23:09;18.60;99.90
21417;DHT22;10869;52.238;10.716;2022-08-25T05:30:50;18.80;99.90
21417;DHT22;10869;52.238;10.716;2022-08-25T05:38:26;18.90;99.90
21417;DHT22;10869;52.238;10.716;2022-08-25T05:41:06;19.00;99.90
21417;DHT22;10869;52.238;10.716;2022-08-25T05:43:36;19.10;99.90
21417;DHT22;10869;52.238;10.716;2022-08-25T05:46:02;19.10;99.90
21417;DHT22;10869;52.238;10.716;2022-08-25T05:51:50;19.30;99.90
21417;DHT22;10869;52.238;10.716;2022-08-25T05:54:16;19.40;99.90
21417;DHT22;10869;52.238;10.716;2022-08-25T05:56:41;19.50;99.90
21417;DHT22;10869;52.238;10.716;2022-08-25T05:59:08;19.60;99.90
21417;DHT22;10869;52.238;10.716;2022-08-25T06:01:34;19.70;99.90
21417;DHT22;10869;52.238;10.716;2022-08-25T06:04:18;19.90;99.90
21417;DHT22;10869;52.238;10.716;2022-08-25T06:06:44;20.00;99.90
21417;DHT22;10869;52.238;10.716;2022-08-25T06:09:11;20.20;99.90
21417;DHT22;10869;52.238;10.716;2022-08-25T06:11:38;20.30;99.90
21417;DHT22;10869;52.238;10.716;2022-08-25T06:14:04;20.50;99.90
21417;DHT22;10869;52.238;10.716;2022-08-25T06:16:30;20.60;99.90
21417;DHT22;10869;52.238;10.716;2022-08-25T06:18:57;20.70;99.90
21417;DHT22;10869;52.238;10.716;2022-08-25T06:21:23;20.90;99.90
21417;DHT22;10869;52.238;10.716;2022-08-25T06:23:49;21.00;99.90
21417;DHT22;10869;52.238;10.716;2022-08-25T06:26:15;21.10;99.90
21417;DHT22;10869;52.238;10.716;2022-08-25T06:32:03;21.30;99.90
21417;DHT22;10869;52.238;10.716;2022-08-25T06:34:29;21.40;99.90
21417;DHT22;10869;52.238;10.716;2022-08-25T06:36:55;21.50;99.90
21417;DHT22;10869;52.238;10.716;2022-08-25T06:39:24;21.60;99.90
21417;DHT22;10869;52.238;10.716;2022-08-25T06:45:25;21.80;99.90
21417;DHT22;10869;52.238;10.716;2022-08-25T06:47:51;21.90;99.90
21417;DHT22;10869;52.238;10.716;2022-08-25T07:18:46;23.10;99.90
21417;DHT22;10869;52.238;10.716;2022-08-25T07:21:13;23.10;99.90
21417;DHT22;10869;52.238;10.716;2022-08-25T07:27:01;23.20;99.90
21417;DHT22;10869;52.238;10.716;2022-08-25T07:32:49;23.60;99.90
21417;DHT22;10869;52.238;10.716;2022-08-25T07:38:37;24.00;99.90
21417;DHT22;10869;52.238;10.716;2022-08-25T07:41:03;24.20;99.90
21417;DHT22;10869;52.238;10.716;2022-08-25T07:43:29;24.30;99.90
21417;DHT22;10869;52.238;10.716;2022-08-25T07:45:55;24.50;99.90
21417;DHT22;10869;52.238;10.716;2022-08-25T07:51:44;24.60;99.90
21417;DHT22;10869;52.238;10.716;2022-08-25T07:54:10;24.70;99.90
21417;DHT22;10869;52.238;10.716;2022-08-25T07:56:37;24.80;99.90
21417;DHT22;10869;52.238;10.716;2022-08-25T07:59:04;24.90;99.90
21417;DHT22;10869;52.238;10.716;2022-08-25T08:01:30;24.90;99.90
21417;DHT22;10869;52.238;10.716;2022-08-25T08:03:56;24.90;99.90
21417;DHT22;10869;52.238;10.716;2022-08-25T08:32:38;25.90;99.90
21417;DHT22;10869;52.238;10.716;2022-08-25T08:37:48;25.90;99.90
21417;DHT22;10869;52.238;10.716;2022-08-25T08:40:20;25.60;99.90
21417;DHT22;10869;52.238;10.716;2022-08-25T08:43:12;25.60;99.90
21417;DHT22;10869;52.238;10.716;2022-08-25T08:49:47;26.00;99.90
21417;DHT22;10869;52.238;10.716;2022-08-25T08:55:42;25.90;99.90
21417;DHT22;10869;52.238;10.716;2022-08-25T09:01:54;25.80;99.90
21417;DHT22;10869;52.238;10.716;2022-08-25T09:16:21;26.80;99.90
21417;DHT22;10869;52.238;10.716;2022-08-25T09:19:19;26.80;99.90
21417;DHT22;10869;52.238;10.716;2022-08-25T09:22:05;27.00;99.90
21417;DHT22;10869;52.238;10.716;2022-08-25T09:24:46;27.20;99.90
21417;DHT22;10869;52.238;10.716;2022-08-25T09:30:22;27.20;99.90
21417;DHT22;10869;52.238;10.716;2022-08-25T09:32:54;27.00;99.90
21417;DHT22;10869;52.238;10.716;2022-08-25T09:35:33;26.80;99.90
21417;DHT22;10869;52.238;10.716;2022-08-25T09:38:02;27.00;99.90
21417;DHT22;10869;52.238;10.716;2022-08-25T09:40:33;26.90;99.90
21417;DHT22;10869;52.238;10.716;2022-08-25T09:43:32;26.70;99.90
21417;DHT22;10869;52.238;10.716;2022-08-25T09:46:13;26.60;99.90
21417;DHT22;10869;52.238;10.716;2022-08-25T09:49:10;26.80;99.90
21417;DHT22;10869;52.238;10.716;2022-08-25T11:42:11;29.50;93.10
21417;DHT22;10869;52.238;10.716;2022-08-25T14:33:58;29.70;89.60
21417;DHT22;10869;52.238;10.716;2022-08-25T14:36:28;29.70;90.30
21417;DHT22;10869;52.238;10.716;2022-08-25T14:38:58;29.70;90.10
21417;DHT22;10869;52.238;10.716;2022-08-25T14:41:26;29.60;90.90
21417;DHT22;10869;52.238;10.716;2022-08-25T14:43:52;29.60;90.60
21417;DHT22;10869;52.238;10.716;2022-08-25T14:46:28;29.70;90.40
21417;DHT22;10869;52.238;10.716;2022-08-25T14:49:03;29.50;89.90
21417;DHT22;10869;52.238;10.716;2022-08-25T14:51:32;29.40;90.50
21417;DHT22;10869;52.238;10.716;2022-08-25T14:56:35;29.40;89.70
21417;DHT22;10869;52.238;10.716;2022-08-25T15:02:29;29.10;90.10
21417;DHT22;10869;52.238;10.716;2022-08-25T15:08:22;29.00;89.60
21417;DHT22;10869;52.238;10.716;2022-08-25T15:11:06;28.70;90.10
21417;DHT22;10869;52.238;10.716;2022-08-25T15:13:32;28.50;90.70
21417;DHT22;10869;52.238;10.716;2022-08-25T15:16:00;28.60;90.60
21417;DHT22;10869;52.238;10.716;2022-08-25T15:18:28;28.60;91.30
21417;DHT22;10869;52.238;10.716;2022-08-25T15:21:02;28.40;90.80
21417;DHT22;10869;52.238;10.716;2022-08-25T15:23:30;28.10;90.90
21417;DHT22;10869;52.238;10.716;2022-08-25T15:25:56;28.20;90.90
21417;DHT22;10869;52.238;10.716;2022-08-25T15:28:23;28.40;90.80
21417;DHT22;10869;52.238;10.716;2022-08-25T15:30:56;28.50;90.80
21417;DHT22;10869;52.238;10.716;2022-08-25T15:33:22;28.60;90.70
21417;DHT22;10869;52.238;10.716;2022-08-25T15:35:49;28.60;90.60
21417;DHT22;10869;52.238;10.716;2022-08-25T15:38:14;28.70;90.50
21417;DHT22;10869;52.238;10.716;2022-08-25T15:40:40;28.70;91.40
21417;DHT22;10869;52.238;10.716;2022-08-25T15:43:07;28.60;91.00
21417;DHT22;10869;52.238;10.716;2022-08-25T15:45:32;28.60;91.20
21417;DHT22;10869;52.238;10.716;2022-08-25T15:51:22;28.50;90.80
21417;DHT22;10869;52.238;10.716;2022-08-25T15:57:10;28.20;91.10
21417;DHT22;10869;52.238;10.716;2022-08-25T15:59:42;28.00;91.10
21417;DHT22;10869;52.238;10.716;2022-08-25T16:02:09;28.00;91.10
21417;DHT22;10869;52.238;10.716;2022-08-25T16:04:35;27.80;91.70
21417;DHT22;10869;52.238;10.716;2022-08-25T16:07:02;27.80;91.40
21417;DHT22;10869;52.238;10.716;2022-08-25T16:12:50;27.80;91.50
21417;DHT22;10869;52.238;10.716;2022-08-25T16:15:16;27.70;91.50
21417;DHT22;10869;52.238;10.716;2022-08-25T16:21:11;27.80;92.70
21417;DHT22;10869;52.238;10.716;2022-08-25T16:26:59;27.80;91.50
21417;DHT22;10869;52.238;10.716;2022-08-25T16:32:51;27.70;91.80
21417;DHT22;10869;52.238;10.716;2022-08-25T16:38:40;27.60;92.80
21417;DHT22;10869;52.238;10.716;2022-08-25T16:44:28;27.40;92.40
21417;DHT22;10869;52.238;10.716;2022-08-25T16:50:15;27.30;91.90
21417;DHT22;10869;52.238;10.716;2022-08-25T16:52:41;27.20;92.70
21417;DHT22;10869;52.238;10.716;2022-08-25T16:55:27;27.20;92.80
21417;DHT22;10869;52.238;10.716;2022-08-25T16:57:58;27.10;92.90
21417;DHT22;10869;52.238;10.716;2022-08-25T17:00:26;27.10;93.40
21417;DHT22;10869;52.238;10.716;2022-08-25T17:02:59;27.10;93.50
21417;DHT22;10869;52.238;10.716;2022-08-25T17:05:27;27.00;93.30
21417;DHT22;10869;52.238;10.716;2022-08-25T17:11:29;26.90;93.80
21417;DHT22;10869;52.238;10.716;2022-08-25T17:13:58;26.80;93.60
21417;DHT22;10869;52.238;10.716;2022-08-25T17:19:46;26.60;94.10
21417;DHT22;10869;52.238;10.716;2022-08-25T17:25:48;26.40;94.70
21417;DHT22;10869;52.238;10.716;2022-08-25T17:28:14;26.30;94.80
21417;DHT22;10869;52.238;10.716;2022-08-25T17:30:40;26.20;94.80
21417;DHT22;10869;52.238;10.716;2022-08-25T17:33:06;26.20;94.70
21417;DHT22;10869;52.238;10.716;2022-08-25T17:35:39;26.10;94.50
21417;DHT22;10869;52.238;10.716;2022-08-25T17:38:05;26.10;94.50
21417;DHT22;10869;52.238;10.716;2022-08-25T17:40:31;26.10;94.70
21417;DHT22;10869;52.238;10.716;2022-08-25T17:46:24;26.10;94.60
21417;DHT22;10869;52.238;10.716;2022-08-25T17:48:50;25.90;94.90
21417;DHT22;10869;52.238;10.716;2022-08-25T17:51:16;25.90;95.00
21417;DHT22;10869;52.238;10.716;2022-08-25T17:53:41;25.80;95.10
21417;DHT22;10869;52.238;10.716;2022-08-25T17:56:11;25.80;95.40
21417;DHT22;10869;52.238;10.716;2022-08-25T17:58:38;25.70;96.00
21417;DHT22;10869;52.238;10.716;2022-08-25T18:01:06;25.60;95.60
21417;DHT22;10869;52.238;10.716;2022-08-25T18:03:33;25.60;95.60
21417;DHT22;10869;52.238;10.716;2022-08-25T18:05:59;25.50;95.90
21417;DHT22;10869;52.238;10.716;2022-08-25T18:11:47;25.40;96.10
21417;DHT22;10869;52.238;10.716;2022-08-25T18:17:39;25.30;96.10
21417;DHT22;10869;52.238;10.716;2022-08-25T18:20:07;25.20;96.30
21417;DHT22;10869;52.238;10.716;2022-08-25T18:22:34;25.10;96.40
21417;DHT22;10869;52.238;10.716;2022-08-25T18:25:03;25.10;96.50
21417;DHT22;10869;52.238;10.716;2022-08-25T18:27:32;25.10;96.60
21417;DHT22;10869;52.238;10.716;2022-08-25T18:29:59;25.00;96.80
21417;DHT22;10869;52.238;10.716;2022-08-25T18:32:26;25.00;97.00
21417;DHT22;10869;52.238;10.716;2022-08-25T18:34:52;25.00;97.10
21417;DHT22;10869;52.238;10.716;2022-08-25T18:37:17;24.90;97.20
21417;DHT22;10869;52.238;10.716;2022-08-25T18:43:24;24.80;97.30
21417;DHT22;10869;52.238;10.716;2022-08-25T18:49:13;24.70;97.60
21417;DHT22;10869;52.238;10.716;2022-08-25T18:51:39;24.70;97.80
21417;DHT22;10869;52.238;10.716;2022-08-25T18:54:05;24.60;98.00
21417;DHT22;10869;52.238;10.716;2022-08-25T18:56:32;24.50;98.20
21417;DHT22;10869;52.238;10.716;2022-08-25T18:58:58;24.50;98.40
21417;DHT22;10869;52.238;10.716;2022-08-25T19:01:24;24.50;98.40
21417;DHT22;10869;52.238;10.716;2022-08-25T19:03:50;24.40;98.50
21417;DHT22;10869;52.238;10.716;2022-08-25T19:06:16;24.30;98.60
21417;DHT22;10869;52.238;10.716;2022-08-25T19:12:05;24.30;98.90
21417;DHT22;10869;52.238;10.716;2022-08-25T19:14:31;24.20;99.10
21417;DHT22;10869;52.238;10.716;2022-08-25T19:20:20;24.10;99.40
21417;DHT22;10869;52.238;10.716;2022-08-25T19:26:08;24.10;99.80
21417;DHT22;10869;52.238;10.716;2022-08-25T19:28:34;24.00;99.90
21417;DHT22;10869;52.238;10.716;2022-08-25T19:31:00;24.00;99.90
21417;DHT22;10869;52.238;10.716;2022-08-25T19:33:29;24.10;99.90
21417;DHT22;10869;52.238;10.716;2022-08-25T19:35:59;24.10;99.90
21417;DHT22;10869;52.238;10.716;2022-08-25T19:41:47;24.00;99.90
21417;DHT22;10869;52.238;10.716;2022-08-25T19:47:35;23.90;99.90
21417;DHT22;10869;52.238;10.716;2022-08-25T19:50:04;23.80;99.90
21417;DHT22;10869;52.238;10.716;2022-08-25T19:52:30;23.80;99.90
21417;DHT22;10869;52.238;10.716;2022-08-25T19:54:55;23.70;99.90
21417;DHT22;10869;52.238;10.716;2022-08-25T19:57:22;23.70;99.90
21417;DHT22;10869;52.238;10.716;2022-08-25T19:59:48;23.70;99.90
21417;DHT22;10869;52.238;10.716;2022-08-25T20:02:17;23.70;99.90
21417;DHT22;10869;52.238;10.716;2022-08-25T20:04:47;23.70;99.90
21417;DHT22;10869;52.238;10.716;2022-08-25T20:07:24;23.60;99.90
21417;DHT22;10869;52.238;10.716;2022-08-25T20:09:57;23.60;99.90
21417;DHT22;10869;52.238;10.716;2022-08-25T20:12:25;23.50;99.90
21417;DHT22;10869;52.238;10.716;2022-08-25T20:14:52;23.50;99.90
21417;DHT22;10869;52.238;10.716;2022-08-25T20:17:19;23.50;99.90
21417;DHT22;10869;52.238;10.716;2022-08-25T20:19:45;23.40;99.90
21417;DHT22;10869;52.238;10.716;2022-08-25T20:22:11;23.40;99.90
21417;DHT22;10869;52.238;10.716;2022-08-25T20:24:37;23.40;99.90
21417;DHT22;10869;52.238;10.716;2022-08-25T20:27:20;23.40;99.90
21417;DHT22;10869;52.238;10.716;2022-08-25T20:29:48;23.30;99.90
21417;DHT22;10869;52.238;10.716;2022-08-25T20:32:14;23.30;99.90
21417;DHT22;10869;52.238;10.716;2022-08-25T20:34:41;23.30;99.90
21417;DHT22;10869;52.238;10.716;2022-08-25T20:37:08;23.30;99.90
21417;DHT22;10869;52.238;10.716;2022-08-25T20:39:34;23.30;99.90
21417;DHT22;10869;52.238;10.716;2022-08-25T20:42:01;23.30;99.90
21417;DHT22;10869;52.238;10.716;2022-08-25T20:44:27;23.30;99.90
21417;DHT22;10869;52.238;10.716;2022-08-25T20:46:59;23.30;99.90
21417;DHT22;10869;52.238;10.716;2022-08-25T20:49:27;23.30;99.90
21417;DHT22;10869;52.238;10.716;2022-08-25T20:51:53;23.30;99.90
21417;DHT22;10869;52.238;10.716;2022-08-25T20:54:18;23.30;99.90
21417;DHT22;10869;52.238;10.716;2022-08-25T20:56:44;23.30;99.90
21417;DHT22;10869;52.238;10.716;2022-08-25T20:59:10;23.20;99.90
21417;DHT22;10869;52.238;10.716;2022-08-25T21:01:35;23.20;99.90
21417;DHT22;10869;52.238;10.716;2022-08-25T21:04:13;23.20;99.90
21417;DHT22;10869;52.238;10.716;2022-08-25T21:06:40;23.20;99.90
21417;DHT22;10869;52.238;10.716;2022-08-25T21:09:08;23.10;99.90
21417;DHT22;10869;52.238;10.716;2022-08-25T21:11:35;23.10;99.90
21417;DHT22;10869;52.238;10.716;2022-08-25T21:14:01;23.10;99.90
21417;DHT22;10869;52.238;10.716;2022-08-25T21:16:28;23.00;99.90
21417;DHT22;10869;52.238;10.716;2022-08-25T21:18:54;23.00;99.90
21417;DHT22;10869;52.238;10.716;2022-08-25T21:21:21;23.00;99.90
21417;DHT22;10869;52.238;10.716;2022-08-25T21:23:49;23.00;99.90
21417;DHT22;10869;52.238;10.716;2022-08-25T21:26:17;23.00;99.90
21417;DHT22;10869;52.238;10.716;2022-08-25T21:28:43;23.00;99.90
21417;DHT22;10869;52.238;10.716;2022-08-25T21:31:10;23.00;99.90
21417;DHT22;10869;52.238;10.716;2022-08-25T21:33:36;23.00;99.90
21417;DHT22;10869;52.238;10.716;2022-08-25T21:36:02;22.90;99.90
21417;DHT22;10869;52.238;10.716;2022-08-25T21:38:28;22.90;99.90
21417;DHT22;10869;52.238;10.716;2022-08-25T21:40:54;22.90;99.90
21417;DHT22;10869;52.238;10.716;2022-08-25T21:43:22;22.80;99.90
21417;DHT22;10869;52.238;10.716;2022-08-25T21:45:50;22.80;99.90
21417;DHT22;10869;52.238;10.716;2022-08-25T21:48:16;22.80;99.90
21417;DHT22;10869;52.238;10.716;2022-08-25T21:50:42;22.80;99.90
21417;DHT22;10869;52.238;10.716;2022-08-25T21:53:08;22.80;99.90
21417;DHT22;10869;52.238;10.716;2022-08-25T21:55:38;22.80;99.90
21417;DHT22;10869;52.238;10.716;2022-08-25T21:58:04;22.80;99.90
21417;DHT22;10869;52.238;10.716;2022-08-25T22:00:30;22.80;99.90
21417;DHT22;10869;52.238;10.716;2022-08-25T22:02:58;22.90;99.90
21417;DHT22;10869;52.238;10.716;2022-08-25T22:05:25;22.90;99.90
21417;DHT22;10869;52.238;10.716;2022-08-25T22:07:51;22.90;99.90
21417;DHT22;10869;52.238;10.716;2022-08-25T22:10:17;22.90;99.90
21417;DHT22;10869;52.238;10.716;2022-08-25T22:12:43;22.90;99.90
21417;DHT22;10869;52.238;10.716;2022-08-25T22:15:09;22.90;99.90
21417;DHT22;10869;52.238;10.716;2022-08-25T22:17:36;23.00;99.90
21417;DHT22;10869;52.238;10.716;2022-08-25T22:20:04;23.00;99.90
21417;DHT22;10869;52.238;10.716;2022-08-25T22:22:30;22.90;99.90
21417;DHT22;10869;52.238;10.716;2022-08-25T22:24:56;22.90;99.90
21417;DHT22;10869;52.238;10.716;2022-08-25T22:27:21;22.90;99.90
21417;DHT22;10869;52.238;10.716;2022-08-25T22:29:47;22.90;99.90
21417;DHT22;10869;52.238;10.716;2022-08-25T22:32:13;22.90;99.90
21417;DHT22;10869;52.238;10.716;2022-08-25T22:34:39;22.80;99.90
21417;DHT22;10869;52.238;10.716;2022-08-25T22:37:05;22.90;99.90
21417;DHT22;10869;52.238;10.716;2022-08-25T22:39:32;22.80;99.90
21417;DHT22;10869;52.238;10.716;2022-08-25T22:41:58;22.80;99.90
21417;DHT22;10869;52.238;10.716;2022-08-25T22:44:24;22.80;99.90
21417;DHT22;10869;52.238;10.716;2022-08-25T22:46:50;22.90;99.90
21417;DHT22;10869;52.238;10.716;2022-08-25T22:49:16;22.90;99.90
21417;DHT22;10869;52.238;10.716;2022-08-25T22:51:42;22.90;99.90
21417;DHT22;10869;52.238;10.716;2022-08-25T22:54:07;22.80;99.90
21417;DHT22;10869;52.238;10.716;2022-08-25T22:56:35;22.80;99.90
21417;DHT22;10869;52.238;10.716;2022-08-25T22:59:06;22.80;99.90
